sensor_id;sensor_type;location;lat;lon;timestamp;pressure;altitude;pressure_sealevel;temperature;humidity
12793;BME280;6460;42.684;23.260;2022-09-09T02:39:24;94768.41;;;19.07;82.41
12793;BME280;6460;42.684;23.260;2022-09-09T04:09:52;94773.44;;;18.12;86.10
12793;BME280;6460;42.684;23.260;2022-09-09T04:12:31;94772.38;;;17.95;89.36
12793;BME280;6460;42.684;23.260;2022-09-09T05:29:29;94756.34;;;19.75;84.73
12793;BME280;6460;42.684;23.260;2022-09-09T05:31:59;94756.97;;;19.90;82.85
12793;BME280;6460;42.684;23.260;2022-09-09T05:55:13;94761.53;;;20.27;78.38
12793;BME280;6460;42.684;23.260;2022-09-09T06:05:16;94777.03;;;20.33;76.49
12793;BME280;6460;42.684;23.260;2022-09-09T06:07:47;94777.84;;;20.30;76.82
12793;BME280;6460;42.684;23.260;2022-09-09T06:14:15;94778.88;;;20.40;76.59
12793;BME280;6460;42.684;23.260;2022-09-09T06:16:43;94778.19;;;20.59;76.09
12793;BME280;6460;42.684;23.260;2022-09-09T06:19:13;94767.75;;;20.54;76.06
12793;BME280;6460;42.684;23.260;2022-09-09T06:21:41;94775.59;;;20.75;75.54
12793;BME280;6460;42.684;23.260;2022-09-09T06:24:11;94760.44;;;20.94;74.22
12793;BME280;6460;42.684;23.260;2022-09-09T06:26:42;94767.34;;;21.02;73.69
12793;BME280;6460;42.684;23.260;2022-09-09T06:29:14;94771.47;;;21.14;73.55
12793;BME280;6460;42.684;23.260;2022-09-09T06:31:44;94769.16;;;21.32;73.28
12793;BME280;6460;42.684;23.260;2022-09-09T06:34:13;94768.25;;;21.38;71.99
12793;BME280;6460;42.684;23.260;2022-09-09T06:36:40;94766.72;;;21.57;72.94
12793;BME280;6460;42.684;23.260;2022-09-09T06:39:08;94764.56;;;21.68;69.78
12793;BME280;6460;42.684;23.260;2022-09-09T06:41:38;94761.78;;;21.91;68.93
12793;BME280;6460;42.684;23.260;2022-09-09T06:44:06;94755.31;;;22.01;68.41
12793;BME280;6460;42.684;23.260;2022-09-09T06:46:36;94753.22;;;21.50;69.61
12793;BME280;6460;42.684;23.260;2022-09-09T06:49:05;94763.06;;;21.83;69.37
12793;BME280;6460;42.684;23.260;2022-09-09T06:51:34;94766.63;;;22.20;68.53
12793;BME280;6460;42.684;23.260;2022-09-09T06:54:08;94768.88;;;22.41;67.27
12793;BME280;6460;42.684;23.260;2022-09-09T06:56:37;94781.88;;;22.53;67.32
12793;BME280;6460;42.684;23.260;2022-09-09T06:59:07;94776.41;;;22.53;66.08
12793;BME280;6460;42.684;23.260;2022-09-09T07:01:42;94774.22;;;22.64;65.75
12793;BME280;6460;42.684;23.260;2022-09-09T07:04:10;94778.25;;;22.76;65.11
12793;BME280;6460;42.684;23.260;2022-09-09T07:06:43;94777.66;;;22.84;66.20
12793;BME280;6460;42.684;23.260;2022-09-09T07:09:24;94774.94;;;23.00;64.78
12793;BME280;6460;42.684;23.260;2022-09-09T07:11:53;94767.09;;;23.15;64.56
12793;BME280;6460;42.684;23.260;2022-09-09T07:14:20;94765.41;;;23.34;64.44
12793;BME280;6460;42.684;23.260;2022-09-09T07:16:51;94769.22;;;23.40;62.00
12793;BME280;6460;42.684;23.260;2022-09-09T07:19:22;94764.22;;;23.35;62.49
12793;BME280;6460;42.684;23.260;2022-09-09T07:21:51;94764.78;;;23.58;62.18
12793;BME280;6460;42.684;23.260;2022-09-09T07:24:19;94761.59;;;23.60;61.41
12793;BME280;6460;42.684;23.260;2022-09-09T07:26:47;94757.41;;;23.55;61.89
12793;BME280;6460;42.684;23.260;2022-09-09T07:29:14;94753.50;;;23.69;61.61
12793;BME280;6460;42.684;23.260;2022-09-09T07:31:46;94755.88;;;23.83;60.85
12793;BME280;6460;42.684;23.260;2022-09-09T07:34:15;94758.44;;;24.15;60.06
12793;BME280;6460;42.684;23.260;2022-09-09T07:36:53;94758.25;;;24.35;58.68
12793;BME280;6460;42.684;23.260;2022-09-09T07:39:33;94745.63;;;24.50;58.73
12793;BME280;6460;42.684;23.260;2022-09-09T07:45:16;94759.97;;;24.92;58.72
12793;BME280;6460;42.684;23.260;2022-09-09T07:47:58;94758.81;;;25.15;56.28
12793;BME280;6460;42.684;23.260;2022-09-09T07:50:49;94754.94;;;25.25;55.65
12793;BME280;6460;42.684;23.260;2022-09-09T07:53:17;94757.56;;;24.94;55.72
12793;BME280;6460;42.684;23.260;2022-09-09T07:55:48;94755.72;;;24.91;56.35
12793;BME280;6460;42.684;23.260;2022-09-09T07:58:29;94761.53;;;24.93;56.66
12793;BME280;6460;42.684;23.260;2022-09-09T08:00:56;94756.56;;;25.35;55.91
12793;BME280;6460;42.684;23.260;2022-09-09T08:03:41;94752.72;;;25.67;54.76
12793;BME280;6460;42.684;23.260;2022-09-09T08:06:15;94760.28;;;25.97;53.62
12793;BME280;6460;42.684;23.260;2022-09-09T08:08:43;94755.09;;;25.77;53.49
12793;BME280;6460;42.684;23.260;2022-09-09T08:11:14;94751.81;;;25.92;53.51
12793;BME280;6460;42.684;23.260;2022-09-09T08:17:09;94744.84;;;26.30;51.38
12793;BME280;6460;42.684;23.260;2022-09-09T08:19:37;94751.28;;;26.27;52.25
12793;BME280;6460;42.684;23.260;2022-09-09T08:28:44;94749.53;;;26.52;50.31
12793;BME280;6460;42.684;23.260;2022-09-09T08:49:50;94741.81;;;27.63;48.34
12793;BME280;6460;42.684;23.260;2022-09-09T08:55:45;94734.13;;;27.76;47.80
12793;BME280;6460;42.684;23.260;2022-09-09T09:01:44;94738.72;;;27.61;47.24
12793;BME280;6460;42.684;23.260;2022-09-09T09:07:51;94739.50;;;28.49;47.17
12793;BME280;6460;42.684;23.260;2022-09-09T09:10:34;94737.28;;;28.62;45.94
12793;BME280;6460;42.684;23.260;2022-09-09T09:13:15;94731.13;;;29.00;42.92
12793;BME280;6460;42.684;23.260;2022-09-09T09:15:54;94732.63;;;28.77;43.11
12793;BME280;6460;42.684;23.260;2022-09-09T09:18:23;94733.44;;;28.68;43.96
12793;BME280;6460;42.684;23.260;2022-09-09T09:20:57;94737.56;;;28.73;44.10
12793;BME280;6460;42.684;23.260;2022-09-09T09:23:35;94730.19;;;28.70;44.19
12793;BME280;6460;42.684;23.260;2022-09-09T09:26:09;94724.94;;;28.72;43.65
12793;BME280;6460;42.684;23.260;2022-09-09T09:28:36;94736.44;;;28.37;44.47
12793;BME280;6460;42.684;23.260;2022-09-09T09:31:05;94744.78;;;28.28;45.52
12793;BME280;6460;42.684;23.260;2022-09-09T09:33:35;94734.53;;;28.53;45.37
12793;BME280;6460;42.684;23.260;2022-09-09T09:36:05;94732.50;;;28.71;44.43
12793;BME280;6460;42.684;23.260;2022-09-09T09:38:36;94727.91;;;28.59;45.15
12793;BME280;6460;42.684;23.260;2022-09-09T09:41:03;94719.03;;;28.88;44.89
12793;BME280;6460;42.684;23.260;2022-09-09T09:43:31;94714.78;;;29.02;43.67
12793;BME280;6460;42.684;23.260;2022-09-09T09:45:58;94713.69;;;28.84;43.95
12793;BME280;6460;42.684;23.260;2022-09-09T09:48:26;94713.53;;;28.79;43.81
12793;BME280;6460;42.684;23.260;2022-09-09T09:50:55;94717.19;;;28.85;44.15
12793;BME280;6460;42.684;23.260;2022-09-09T09:53:26;94709.63;;;28.62;44.15
12793;BME280;6460;42.684;23.260;2022-09-09T09:55:58;94708.31;;;28.48;45.24
12793;BME280;6460;42.684;23.260;2022-09-09T09:58:27;94710.00;;;28.46;45.39
12793;BME280;6460;42.684;23.260;2022-09-09T10:01:00;94710.22;;;28.66;44.63
12793;BME280;6460;42.684;23.260;2022-09-09T10:03:29;94702.25;;;28.92;43.65
12793;BME280;6460;42.684;23.260;2022-09-09T10:05:57;94716.63;;;28.81;44.80
12793;BME280;6460;42.684;23.260;2022-09-09T10:08:25;94717.03;;;28.88;42.98
12793;BME280;6460;42.684;23.260;2022-09-09T10:11:14;94724.59;;;27.95;43.93
12793;BME280;6460;42.684;23.260;2022-09-09T10:13:50;94719.69;;;27.81;44.37
12793;BME280;6460;42.684;23.260;2022-09-09T10:16:37;94723.38;;;27.32;46.33
12793;BME280;6460;42.684;23.260;2022-09-09T10:19:13;94723.38;;;27.51;46.28
12793;BME280;6460;42.684;23.260;2022-09-09T10:25:16;94721.84;;;27.68;48.48
12793;BME280;6460;42.684;23.260;2022-09-09T10:27:57;94723.72;;;27.53;47.15
12793;BME280;6460;42.684;23.260;2022-09-09T10:30:36;94721.25;;;27.55;47.11
12793;BME280;6460;42.684;23.260;2022-09-09T10:33:10;94719.09;;;27.59;47.88
12793;BME280;6460;42.684;23.260;2022-09-09T10:35:44;94726.78;;;27.55;48.64
12793;BME280;6460;42.684;23.260;2022-09-09T10:38:17;94725.56;;;27.56;48.50
12793;BME280;6460;42.684;23.260;2022-09-09T10:40:58;94728.16;;;27.50;48.25
12793;BME280;6460;42.684;23.260;2022-09-09T10:43:52;94735.03;;;27.18;48.11
12793;BME280;6460;42.684;23.260;2022-09-09T10:46:31;94737.16;;;27.14;49.41
12793;BME280;6460;42.684;23.260;2022-09-09T10:49:09;94738.72;;;27.24;49.33
12793;BME280;6460;42.684;23.260;2022-09-09T10:51:46;94732.22;;;26.91;49.45
12793;BME280;6460;42.684;23.260;2022-09-09T10:54:24;94738.50;;;26.52;50.87
12793;BME280;6460;42.684;23.260;2022-09-09T10:57:00;94736.41;;;26.25;52.19
12793;BME280;6460;42.684;23.260;2022-09-09T10:59:32;94731.34;;;25.71;54.40
12793;BME280;6460;42.684;23.260;2022-09-09T11:02:05;94731.09;;;25.78;54.44
12793;BME280;6460;42.684;23.260;2022-09-09T11:04:43;94726.84;;;25.86;54.56
12793;BME280;6460;42.684;23.260;2022-09-09T11:07:14;94732.94;;;25.81;54.99
12793;BME280;6460;42.684;23.260;2022-09-09T11:09:52;94730.06;;;25.63;56.08
12793;BME280;6460;42.684;23.260;2022-09-09T11:12:23;94727.34;;;25.72;56.40
12793;BME280;6460;42.684;23.260;2022-09-09T11:14:57;94721.94;;;25.47;58.11
12793;BME280;6460;42.684;23.260;2022-09-09T11:17:33;94720.06;;;25.78;57.00
12793;BME280;6460;42.684;23.260;2022-09-09T11:20:02;94714.28;;;25.85;57.17
12793;BME280;6460;42.684;23.260;2022-09-09T11:22:36;94713.38;;;25.88;57.85
12793;BME280;6460;42.684;23.260;2022-09-09T11:25:09;94712.34;;;26.16;56.54
12793;BME280;6460;42.684;23.260;2022-09-09T11:27:47;94709.34;;;26.02;57.09
12793;BME280;6460;42.684;23.260;2022-09-09T11:30:20;94695.94;;;26.13;57.06
12793;BME280;6460;42.684;23.260;2022-09-09T11:36:05;94676.63;;;26.44;55.73
12793;BME280;6460;42.684;23.260;2022-09-09T11:38:43;94667.13;;;26.45;55.59
12793;BME280;6460;42.684;23.260;2022-09-09T11:41:12;94660.00;;;26.16;57.06
12793;BME280;6460;42.684;23.260;2022-09-09T11:43:41;94651.38;;;26.45;56.52
12793;BME280;6460;42.684;23.260;2022-09-09T11:46:12;94648.66;;;26.72;56.02
12793;BME280;6460;42.684;23.260;2022-09-09T11:48:42;94632.41;;;26.65;57.19
12793;BME280;6460;42.684;23.260;2022-09-09T11:51:12;94633.66;;;26.73;57.01
12793;BME280;6460;42.684;23.260;2022-09-09T11:53:50;94636.28;;;27.04;56.07
12793;BME280;6460;42.684;23.260;2022-09-09T11:56:28;94638.13;;;27.16;55.77
12793;BME280;6460;42.684;23.260;2022-09-09T11:59:02;94635.38;;;27.44;54.09
12793;BME280;6460;42.684;23.260;2022-09-09T12:01:37;94630.41;;;27.75;54.00
12793;BME280;6460;42.684;23.260;2022-09-09T12:04:34;94645.19;;;28.05;52.81
12793;BME280;6460;42.684;23.260;2022-09-09T12:07:05;94632.53;;;28.22;52.02
12793;BME280;6460;42.684;23.260;2022-09-09T12:09:50;94617.47;;;28.56;51.37
12793;BME280;6460;42.684;23.260;2022-09-09T12:12:30;94605.00;;;28.84;50.67
12793;BME280;6460;42.684;23.260;2022-09-09T12:15:16;94600.97;;;28.37;52.66
12793;BME280;6460;42.684;23.260;2022-09-09T12:17:49;94612.19;;;27.32;54.45
12793;BME280;6460;42.684;23.260;2022-09-09T12:20:19;94618.63;;;27.29;54.93
12793;BME280;6460;42.684;23.260;2022-09-09T12:23:22;94609.03;;;27.15;53.89
12793;BME280;6460;42.684;23.260;2022-09-09T12:26:00;94614.75;;;27.72;52.84
12793;BME280;6460;42.684;23.260;2022-09-09T12:28:41;94592.06;;;28.43;52.12
12793;BME280;6460;42.684;23.260;2022-09-09T12:31:12;94599.50;;;28.99;50.25
12793;BME280;6460;42.684;23.260;2022-09-09T12:33:45;94599.13;;;29.06;48.22
12793;BME280;6460;42.684;23.260;2022-09-09T12:36:15;94601.63;;;28.32;49.20
12793;BME280;6460;42.684;23.260;2022-09-09T12:38:43;94598.03;;;29.27;47.44
12793;BME280;6460;42.684;23.260;2022-09-09T12:41:19;94599.50;;;28.27;49.42
12793;BME280;6460;42.684;23.260;2022-09-09T12:43:46;94621.09;;;26.72;53.28
12793;BME280;6460;42.684;23.260;2022-09-09T12:46:21;94611.25;;;26.71;54.62
12793;BME280;6460;42.684;23.260;2022-09-09T12:48:53;94609.56;;;26.56;54.01
12793;BME280;6460;42.684;23.260;2022-09-09T12:51:24;94607.59;;;26.74;54.32
12793;BME280;6460;42.684;23.260;2022-09-09T12:53:53;94603.78;;;26.81;55.07
12793;BME280;6460;42.684;23.260;2022-09-09T12:56:22;94594.63;;;27.02;54.98
12793;BME280;6460;42.684;23.260;2022-09-09T12:58:53;94601.66;;;27.03;54.43
12793;BME280;6460;42.684;23.260;2022-09-09T13:01:23;94589.06;;;26.75;55.34
12793;BME280;6460;42.684;23.260;2022-09-09T13:03:50;94589.97;;;26.63;56.02
12793;BME280;6460;42.684;23.260;2022-09-09T13:06:22;94584.44;;;26.45;57.44
12793;BME280;6460;42.684;23.260;2022-09-09T13:08:57;94594.22;;;26.27;57.21
12793;BME280;6460;42.684;23.260;2022-09-09T13:11:27;94588.28;;;26.07;58.11
12793;BME280;6460;42.684;23.260;2022-09-09T13:13:56;94575.84;;;26.43;57.46
12793;BME280;6460;42.684;23.260;2022-09-09T13:16:26;94603.28;;;26.46;56.96
12793;BME280;6460;42.684;23.260;2022-09-09T13:18:57;94568.50;;;26.30;57.82
12793;BME280;6460;42.684;23.260;2022-09-09T13:21:36;94579.72;;;25.96;57.66
12793;BME280;6460;42.684;23.260;2022-09-09T13:24:04;94562.56;;;26.01;57.28
12793;BME280;6460;42.684;23.260;2022-09-09T13:26:33;94548.28;;;26.24;57.63
12793;BME280;6460;42.684;23.260;2022-09-09T13:29:16;94533.88;;;26.29;56.43
12793;BME280;6460;42.684;23.260;2022-09-09T13:31:46;94538.81;;;26.35;55.10
12793;BME280;6460;42.684;23.260;2022-09-09T13:34:26;94552.28;;;26.51;55.99
12793;BME280;6460;42.684;23.260;2022-09-09T13:36:59;94536.66;;;26.39;56.88
12793;BME280;6460;42.684;23.260;2022-09-09T13:39:28;94544.50;;;26.95;55.89
12793;BME280;6460;42.684;23.260;2022-09-09T13:41:55;94542.09;;;27.39;54.89
12793;BME280;6460;42.684;23.260;2022-09-09T13:44:24;94532.31;;;27.79;53.61
12793;BME280;6460;42.684;23.260;2022-09-09T13:47:03;94523.47;;;27.99;51.66
12793;BME280;6460;42.684;23.260;2022-09-09T13:49:31;94537.50;;;27.54;52.26
12793;BME280;6460;42.684;23.260;2022-09-09T13:52:10;94528.00;;;27.37;53.93
12793;BME280;6460;42.684;23.260;2022-09-09T13:54:38;94528.00;;;27.46;54.36
12793;BME280;6460;42.684;23.260;2022-09-09T13:57:11;94527.19;;;26.58;55.28
12793;BME280;6460;42.684;23.260;2022-09-09T13:59:40;94523.09;;;27.31;52.97
12793;BME280;6460;42.684;23.260;2022-09-09T14:02:07;94531.50;;;27.88;51.16
12793;BME280;6460;42.684;23.260;2022-09-09T14:04:34;94511.94;;;28.33;50.33
12793;BME280;6460;42.684;23.260;2022-09-09T14:07:01;94514.97;;;28.35;49.06
12793;BME280;6460;42.684;23.260;2022-09-09T14:09:30;94518.19;;;27.35;51.40
12793;BME280;6460;42.684;23.260;2022-09-09T14:11:57;94513.00;;;28.03;50.21
12793;BME280;6460;42.684;23.260;2022-09-09T14:14:24;94520.25;;;28.24;49.16
12793;BME280;6460;42.684;23.260;2022-09-09T14:16:51;94503.41;;;28.61;48.51
12793;BME280;6460;42.684;23.260;2022-09-09T14:19:17;94500.66;;;28.61;48.99
12793;BME280;6460;42.684;23.260;2022-09-09T14:21:45;94508.38;;;28.95;47.45
12793;BME280;6460;42.684;23.260;2022-09-09T14:24:12;94504.09;;;29.09;46.24
12793;BME280;6460;42.684;23.260;2022-09-09T14:26:40;94505.53;;;29.19;46.94
12793;BME280;6460;42.684;23.260;2022-09-09T14:29:07;94512.13;;;29.51;46.98
12793;BME280;6460;42.684;23.260;2022-09-09T14:31:34;94511.34;;;29.50;46.23
12793;BME280;6460;42.684;23.260;2022-09-09T14:34:01;94505.25;;;29.31;46.86
12793;BME280;6460;42.684;23.260;2022-09-09T14:36:27;94502.19;;;29.93;46.15
12793;BME280;6460;42.684;23.260;2022-09-09T14:38:55;94499.97;;;30.32;45.35
12793;BME280;6460;42.684;23.260;2022-09-09T14:41:22;94499.91;;;30.27;44.79
12793;BME280;6460;42.684;23.260;2022-09-09T14:43:51;94506.13;;;29.87;45.78
12793;BME280;6460;42.684;23.260;2022-09-09T14:46:20;94505.03;;;29.64;46.38
12793;BME280;6460;42.684;23.260;2022-09-09T14:48:47;94505.84;;;29.35;46.97
12793;BME280;6460;42.684;23.260;2022-09-09T14:51:17;94503.22;;;29.47;46.44
12793;BME280;6460;42.684;23.260;2022-09-09T14:53:46;94506.94;;;29.00;47.50
12793;BME280;6460;42.684;23.260;2022-09-09T14:56:15;94514.69;;;29.39;47.02
12793;BME280;6460;42.684;23.260;2022-09-09T14:58:42;94515.44;;;28.58;48.05
12793;BME280;6460;42.684;23.260;2022-09-09T15:01:12;94516.03;;;28.62;47.75
12793;BME280;6460;42.684;23.260;2022-09-09T15:03:40;94528.63;;;28.15;49.18
12793;BME280;6460;42.684;23.260;2022-09-09T15:06:10;94535.81;;;28.46;48.45
12793;BME280;6460;42.684;23.260;2022-09-09T15:08:38;94532.09;;;28.49;48.49
12793;BME280;6460;42.684;23.260;2022-09-09T15:11:06;94536.81;;;28.33;48.15
12793;BME280;6460;42.684;23.260;2022-09-09T15:13:33;94544.00;;;27.23;51.72
12793;BME280;6460;42.684;23.260;2022-09-09T15:16:04;94546.78;;;27.05;52.30
12793;BME280;6460;42.684;23.260;2022-09-09T15:18:33;94542.28;;;27.44;51.41
12793;BME280;6460;42.684;23.260;2022-09-09T15:21:01;94537.78;;;28.21;49.64
12793;BME280;6460;42.684;23.260;2022-09-09T15:23:31;94523.50;;;28.85;47.23
12793;BME280;6460;42.684;23.260;2022-09-09T15:25:58;94522.69;;;28.94;47.03
12793;BME280;6460;42.684;23.260;2022-09-09T15:28:25;94518.19;;;29.84;45.13
12793;BME280;6460;42.684;23.260;2022-09-09T15:30:53;94511.72;;;30.07;44.98
12793;BME280;6460;42.684;23.260;2022-09-09T15:33:21;94527.53;;;30.01;44.04
12793;BME280;6460;42.684;23.260;2022-09-09T15:35:49;94521.53;;;29.88;44.57
12793;BME280;6460;42.684;23.260;2022-09-09T15:38:17;94518.41;;;29.66;45.50
12793;BME280;6460;42.684;23.260;2022-09-09T15:40:44;94512.00;;;28.63;47.21
12793;BME280;6460;42.684;23.260;2022-09-09T15:43:12;94521.31;;;27.70;50.68
12793;BME280;6460;42.684;23.260;2022-09-09T15:45:39;94515.41;;;28.43;49.10
12793;BME280;6460;42.684;23.260;2022-09-09T15:48:06;94515.25;;;28.61;48.71
12793;BME280;6460;42.684;23.260;2022-09-09T15:50:32;94501.88;;;28.60;48.31
12793;BME280;6460;42.684;23.260;2022-09-09T15:53:00;94510.34;;;28.65;48.83
12793;BME280;6460;42.684;23.260;2022-09-09T15:55:28;94517.47;;;28.01;49.60
12793;BME280;6460;42.684;23.260;2022-09-09T15:57:55;94513.22;;;28.23;49.03
12793;BME280;6460;42.684;23.260;2022-09-09T16:00:23;94518.75;;;27.58;50.46
12793;BME280;6460;42.684;23.260;2022-09-09T16:02:50;94508.97;;;27.39;51.92
12793;BME280;6460;42.684;23.260;2022-09-09T16:05:17;94519.06;;;26.63;54.75
12793;BME280;6460;42.684;23.260;2022-09-09T16:07:44;94517.97;;;26.43;55.44
12793;BME280;6460;42.684;23.260;2022-09-09T16:10:14;94511.56;;;26.55;55.17
12793;BME280;6460;42.684;23.260;2022-09-09T16:12:41;94507.88;;;26.58;55.35
12793;BME280;6460;42.684;23.260;2022-09-09T16:15:09;94512.75;;;26.72;54.65
12793;BME280;6460;42.684;23.260;2022-09-09T16:17:36;94520.72;;;26.79;54.62
12793;BME280;6460;42.684;23.260;2022-09-09T16:20:04;94513.69;;;26.60;54.81
12793;BME280;6460;42.684;23.260;2022-09-09T16:22:34;94509.09;;;26.84;54.72
12793;BME280;6460;42.684;23.260;2022-09-09T16:25:02;94503.41;;;26.97;55.18
12793;BME280;6460;42.684;23.260;2022-09-09T16:27:30;94503.41;;;26.97;55.33
12793;BME280;6460;42.684;23.260;2022-09-09T16:29:57;94515.22;;;26.79;55.73
12793;BME280;6460;42.684;23.260;2022-09-09T16:32:24;94517.81;;;26.37;57.10
12793;BME280;6460;42.684;23.260;2022-09-09T16:34:51;94515.84;;;26.56;56.65
12793;BME280;6460;42.684;23.260;2022-09-09T16:37:19;94522.72;;;26.69;56.11
12793;BME280;6460;42.684;23.260;2022-09-09T16:39:46;94525.66;;;25.81;58.73
12793;BME280;6460;42.684;23.260;2022-09-09T16:42:12;94527.03;;;25.94;57.56
12793;BME280;6460;42.684;23.260;2022-09-09T16:44:41;94518.06;;;25.54;58.28
12793;BME280;6460;42.684;23.260;2022-09-09T16:47:08;94518.16;;;25.81;57.73
12793;BME280;6460;42.684;23.260;2022-09-09T16:49:35;94526.94;;;25.27;59.27
12793;BME280;6460;42.684;23.260;2022-09-09T16:52:02;94519.97;;;25.44;58.56
12793;BME280;6460;42.684;23.260;2022-09-09T16:54:29;94519.19;;;25.44;58.77
12793;BME280;6460;42.684;23.260;2022-09-09T16:56:57;94514.94;;;25.43;58.62
12793;BME280;6460;42.684;23.260;2022-09-09T16:59:24;94519.81;;;25.39;58.45
12793;BME280;6460;42.684;23.260;2022-09-09T17:01:53;94517.28;;;25.22;59.11
12793;BME280;6460;42.684;23.260;2022-09-09T17:04:22;94513.84;;;25.09;60.07
12793;BME280;6460;42.684;23.260;2022-09-09T17:06:50;94523.50;;;24.92;60.69
12793;BME280;6460;42.684;23.260;2022-09-09T17:09:19;94513.91;;;24.75;61.07
12793;BME280;6460;42.684;23.260;2022-09-09T17:11:47;94515.56;;;24.72;61.28
12793;BME280;6460;42.684;23.260;2022-09-09T17:14:17;94517.94;;;24.61;62.14
12793;BME280;6460;42.684;23.260;2022-09-09T17:16:44;94519.28;;;24.57;62.87
12793;BME280;6460;42.684;23.260;2022-09-09T17:19:14;94525.94;;;24.68;62.37
12793;BME280;6460;42.684;23.260;2022-09-09T17:21:41;94516.50;;;24.91;61.57
12793;BME280;6460;42.684;23.260;2022-09-09T17:24:10;94516.28;;;25.07;61.19
12793;BME280;6460;42.684;23.260;2022-09-09T17:26:37;94519.13;;;25.25;60.99
12793;BME280;6460;42.684;23.260;2022-09-09T17:29:05;94522.72;;;25.13;61.75
12793;BME280;6460;42.684;23.260;2022-09-09T17:31:33;94527.41;;;25.04;62.73
12793;BME280;6460;42.684;23.260;2022-09-09T17:34:00;94529.34;;;24.94;63.14
12793;BME280;6460;42.684;23.260;2022-09-09T17:36:31;94535.28;;;24.93;64.17
12793;BME280;6460;42.684;23.260;2022-09-09T17:39:00;94531.03;;;25.22;63.15
12793;BME280;6460;42.684;23.260;2022-09-09T17:41:29;94532.75;;;25.29;62.93
12793;BME280;6460;42.684;23.260;2022-09-09T17:43:57;94541.66;;;24.68;65.53
12793;BME280;6460;42.684;23.260;2022-09-09T17:46:26;94544.09;;;24.66;65.21
12793;BME280;6460;42.684;23.260;2022-09-09T17:48:55;94545.50;;;24.92;64.01
12793;BME280;6460;42.684;23.260;2022-09-09T17:51:25;94546.16;;;24.96;63.99
12793;BME280;6460;42.684;23.260;2022-09-09T17:53:55;94555.09;;;24.88;64.57
12793;BME280;6460;42.684;23.260;2022-09-09T17:56:25;94554.47;;;24.49;65.44
12793;BME280;6460;42.684;23.260;2022-09-09T17:58:54;94556.09;;;24.81;64.43
12793;BME280;6460;42.684;23.260;2022-09-09T18:01:22;94554.66;;;24.89;64.75
12793;BME280;6460;42.684;23.260;2022-09-09T18:03:53;94560.22;;;24.98;64.99
12793;BME280;6460;42.684;23.260;2022-09-09T18:06:23;94565.84;;;25.16;64.56
12793;BME280;6460;42.684;23.260;2022-09-09T18:08:55;94565.78;;;25.07;65.18
12793;BME280;6460;42.684;23.260;2022-09-09T18:11:24;94573.19;;;25.19;64.83
12793;BME280;6460;42.684;23.260;2022-09-09T18:13:54;94574.41;;;25.18;64.70
12793;BME280;6460;42.684;23.260;2022-09-09T18:16:23;94574.34;;;25.09;65.55
12793;BME280;6460;42.684;23.260;2022-09-09T18:18:51;94584.44;;;25.12;65.82
12793;BME280;6460;42.684;23.260;2022-09-09T18:21:19;94582.47;;;24.91;66.92
12793;BME280;6460;42.684;23.260;2022-09-09T18:23:48;94586.25;;;25.06;67.00
12793;BME280;6460;42.684;23.260;2022-09-09T18:26:21;94590.41;;;25.11;67.27
12793;BME280;6460;42.684;23.260;2022-09-09T18:28:50;94591.88;;;24.68;68.61
12793;BME280;6460;42.684;23.260;2022-09-09T18:31:19;94601.22;;;24.71;68.24
12793;BME280;6460;42.684;23.260;2022-09-09T18:33:48;94602.41;;;24.83;67.69
12793;BME280;6460;42.684;23.260;2022-09-09T18:36:19;94595.69;;;24.84;67.52
12793;BME280;6460;42.684;23.260;2022-09-09T18:38:46;94606.38;;;24.82;67.65
12793;BME280;6460;42.684;23.260;2022-09-09T18:41:15;94613.09;;;24.68;67.90
12793;BME280;6460;42.684;23.260;2022-09-09T18:43:44;94608.72;;;24.58;68.85
12793;BME280;6460;42.684;23.260;2022-09-09T18:46:12;94618.09;;;24.48;69.05
12793;BME280;6460;42.684;23.260;2022-09-09T18:48:41;94613.84;;;24.47;69.78
12793;BME280;6460;42.684;23.260;2022-09-09T18:51:11;94616.75;;;24.65;68.74
12793;BME280;6460;42.684;23.260;2022-09-09T18:53:39;94616.44;;;24.63;68.80
12793;BME280;6460;42.684;23.260;2022-09-09T18:56:07;94617.50;;;24.31;70.43
12793;BME280;6460;42.684;23.260;2022-09-09T18:58:35;94609.66;;;24.42;70.04
12793;BME280;6460;42.684;23.260;2022-09-09T19:01:07;94612.28;;;24.46;70.32
12793;BME280;6460;42.684;23.260;2022-09-09T19:03:35;94605.69;;;24.56;69.82
12793;BME280;6460;42.684;23.260;2022-09-09T19:06:04;94604.47;;;24.44;69.86
12793;BME280;6460;42.684;23.260;2022-09-09T19:08:34;94607.81;;;24.27;70.41
12793;BME280;6460;42.684;23.260;2022-09-09T19:11:02;94595.38;;;24.35;70.42
12793;BME280;6460;42.684;23.260;2022-09-09T19:13:29;94606.97;;;24.17;70.92
12793;BME280;6460;42.684;23.260;2022-09-09T19:16:03;94603.03;;;23.93;71.55
12793;BME280;6460;42.684;23.260;2022-09-09T19:18:31;94602.66;;;24.29;70.50
12793;BME280;6460;42.684;23.260;2022-09-09T19:21:10;94598.34;;;24.40;69.83
12793;BME280;6460;42.684;23.260;2022-09-09T19:23:38;94596.03;;;24.39;70.15
12793;BME280;6460;42.684;23.260;2022-09-09T19:26:07;94589.41;;;24.49;71.46
12793;BME280;6460;42.684;23.260;2022-09-09T19:28:36;94583.44;;;24.63;70.97
12793;BME280;6460;42.684;23.260;2022-09-09T19:31:07;94581.03;;;24.65;70.51
12793;BME280;6460;42.684;23.260;2022-09-09T19:33:36;94579.88;;;24.75;70.00
12793;BME280;6460;42.684;23.260;2022-09-09T19:36:05;94582.06;;;24.80;68.26
12793;BME280;6460;42.684;23.260;2022-09-09T19:38:34;94591.41;;;24.83;67.65
12793;BME280;6460;42.684;23.260;2022-09-09T19:41:05;94580.78;;;24.72;67.81
12793;BME280;6460;42.684;23.260;2022-09-09T19:43:33;94581.03;;;24.65;67.83
12793;BME280;6460;42.684;23.260;2022-09-09T19:46:02;94580.38;;;24.61;68.30
12793;BME280;6460;42.684;23.260;2022-09-09T19:48:31;94568.47;;;24.64;67.66
12793;BME280;6460;42.684;23.260;2022-09-09T19:51:00;94571.03;;;24.58;69.87
12793;BME280;6460;42.684;23.260;2022-09-09T19:53:28;94558.91;;;24.68;68.57
12793;BME280;6460;42.684;23.260;2022-09-09T19:55:56;94557.25;;;24.71;68.15
12793;BME280;6460;42.684;23.260;2022-09-09T19:58:23;94553.72;;;24.70;68.55
12793;BME280;6460;42.684;23.260;2022-09-09T20:00:50;94555.31;;;24.59;70.35